sensor_id;sensor_type;location;lat;lon;timestamp;P1;durP1;ratioP1;P2;durP2;ratioP2
7211;SDS011;3647;48.792;9.802;2023-06-24T00:02:21;5.03;;;4.10;;
7211;SDS011;3647;48.792;9.802;2023-06-24T00:04:49;5.90;;;3.72;;
7211;SDS011;3647;48.792;9.802;2023-06-24T00:07:16;4.97;;;3.67;;
7211;SDS011;3647;48.792;9.802;2023-06-24T00:09:42;4.43;;;3.92;;
7211;SDS011;3647;48.792;9.802;2023-06-24T00:12:09;6.60;;;3.85;;
7211;SDS011;3647;48.792;9.802;2023-06-24T00:14:45;5.25;;;3.80;;
7211;SDS011;3647;48.792;9.802;2023-06-24T00:17:12;4.90;;;3.30;;
7211;SDS011;3647;48.792;9.802;2023-06-24T00:19:39;4.50;;;3.50;;
7211;SDS011;3647;48.792;9.802;2023-06-24T00:22:06;5.63;;;3.78;;
7211;SDS011;3647;48.792;9.802;2023-06-24T00:24:33;7.30;;;3.70;;
7211;SDS011;3647;48.792;9.802;2023-06-24T00:26:59;4.15;;;3.72;;
7211;SDS011;3647;48.792;9.802;2023-06-24T00:29:26;5.28;;;4.07;;
7211;SDS011;3647;48.792;9.802;2023-06-24T00:31:54;4.88;;;3.55;;
7211;SDS011;3647;48.792;9.802;2023-06-24T00:34:21;4.70;;;3.58;;
7211;SDS011;3647;48.792;9.802;2023-06-24T00:36:48;4.68;;;3.65;;
7211;SDS011;3647;48.792;9.802;2023-06-24T00:39:16;5.13;;;4.10;;
7211;SDS011;3647;48.792;9.802;2023-06-24T00:41:43;5.30;;;4.10;;
7211;SDS011;3647;48.792;9.802;2023-06-24T00:44:09;5.35;;;3.85;;
7211;SDS011;3647;48.792;9.802;2023-06-24T00:46:36;4.15;;;3.38;;
7211;SDS011;3647;48.792;9.802;2023-06-24T00:49:06;6.32;;;4.43;;
7211;SDS011;3647;48.792;9.802;2023-06-24T00:51:33;4.20;;;3.83;;
7211;SDS011;3647;48.792;9.802;2023-06-24T00:54:01;5.63;;;3.65;;
7211;SDS011;3647;48.792;9.802;2023-06-24T00:56:29;3.92;;;3.53;;
7211;SDS011;3647;48.792;9.802;2023-06-24T00:58:59;6.07;;;4.28;;
7211;SDS011;3647;48.792;9.802;2023-06-24T01:01:27;4.30;;;3.78;;
7211;SDS011;3647;48.792;9.802;2023-06-24T01:04:00;4.50;;;3.67;;
7211;SDS011;3647;48.792;9.802;2023-06-24T01:06:29;4.65;;;4.07;;
7211;SDS011;3647;48.792;9.802;2023-06-24T01:08:57;5.60;;;4.15;;
7211;SDS011;3647;48.792;9.802;2023-06-24T01:11:25;5.38;;;3.90;;
7211;SDS011;3647;48.792;9.802;2023-06-24T01:13:52;5.47;;;4.30;;
7211;SDS011;3647;48.792;9.802;2023-06-24T01:16:21;6.30;;;4.40;;
7211;SDS011;3647;48.792;9.802;2023-06-24T01:18:53;5.72;;;4.20;;
7211;SDS011;3647;48.792;9.802;2023-06-24T01:21:29;5.47;;;4.72;;
7211;SDS011;3647;48.792;9.802;2023-06-24T01:27:19;5.93;;;4.53;;
7211;SDS011;3647;48.792;9.802;2023-06-24T01:30:15;6.93;;;4.47;;
7211;SDS011;3647;48.792;9.802;2023-06-24T01:33:01;6.72;;;5.07;;
7211;SDS011;3647;48.792;9.802;2023-06-24T01:35:31;9.52;;;4.78;;
7211;SDS011;3647;48.792;9.802;2023-06-24T01:38:01;5.88;;;4.07;;
7211;SDS011;3647;48.792;9.802;2023-06-24T01:40:32;6.07;;;4.28;;
7211;SDS011;3647;48.792;9.802;2023-06-24T01:43:05;6.63;;;4.55;;
7211;SDS011;3647;48.792;9.802;2023-06-24T01:45:35;5.88;;;4.80;;
7211;SDS011;3647;48.792;9.802;2023-06-24T01:48:09;7.40;;;4.80;;
7211;SDS011;3647;48.792;9.802;2023-06-24T01:50:42;5.25;;;4.10;;
7211;SDS011;3647;48.792;9.802;2023-06-24T01:53:14;6.65;;;4.95;;
7211;SDS011;3647;48.792;9.802;2023-06-24T01:55:43;7.05;;;4.07;;
7211;SDS011;3647;48.792;9.802;2023-06-24T01:58:12;5.43;;;4.32;;
7211;SDS011;3647;48.792;9.802;2023-06-24T02:00:43;7.47;;;4.97;;
7211;SDS011;3647;48.792;9.802;2023-06-24T02:03:11;7.50;;;4.57;;
7211;SDS011;3647;48.792;9.802;2023-06-24T02:05:39;5.88;;;4.95;;
7211;SDS011;3647;48.792;9.802;2023-06-24T02:08:07;6.43;;;4.25;;
7211;SDS011;3647;48.792;9.802;2023-06-24T02:10:36;5.18;;;4.30;;
7211;SDS011;3647;48.792;9.802;2023-06-24T02:13:04;6.10;;;4.15;;
7211;SDS011;3647;48.792;9.802;2023-06-24T02:15:33;4.90;;;4.40;;
7211;SDS011;3647;48.792;9.802;2023-06-24T02:18:02;5.65;;;4.60;;
7211;SDS011;3647;48.792;9.802;2023-06-24T02:20:32;6.45;;;4.55;;
7211;SDS011;3647;48.792;9.802;2023-06-24T02:23:00;7.85;;;5.10;;
7211;SDS011;3647;48.792;9.802;2023-06-24T02:25:30;6.32;;;4.70;;
7211;SDS011;3647;48.792;9.802;2023-06-24T02:27:58;6.20;;;4.47;;
7211;SDS011;3647;48.792;9.802;2023-06-24T02:30:25;7.70;;;5.37;;
7211;SDS011;3647;48.792;9.802;2023-06-24T02:32:52;5.40;;;4.40;;
7211;SDS011;3647;48.792;9.802;2023-06-24T02:35:19;6.28;;;5.03;;
7211;SDS011;3647;48.792;9.802;2023-06-24T02:37:47;5.67;;;4.60;;
7211;SDS011;3647;48.792;9.802;2023-06-24T02:40:14;5.90;;;4.70;;
7211;SDS011;3647;48.792;9.802;2023-06-24T02:42:41;6.83;;;4.67;;
7211;SDS011;3647;48.792;9.802;2023-06-24T02:45:08;7.33;;;4.50;;
7211;SDS011;3647;48.792;9.802;2023-06-24T02:47:36;6.37;;;5.03;;
7211;SDS011;3647;48.792;9.802;2023-06-24T02:50:04;5.03;;;4.30;;
7211;SDS011;3647;48.792;9.802;2023-06-24T02:52:33;5.80;;;4.87;;
7211;SDS011;3647;48.792;9.802;2023-06-24T02:55:03;7.03;;;5.43;;
7211;SDS011;3647;48.792;9.802;2023-06-24T02:57:31;8.17;;;4.90;;
7211;SDS011;3647;48.792;9.802;2023-06-24T03:00:01;7.50;;;5.10;;
7211;SDS011;3647;48.792;9.802;2023-06-24T03:02:29;7.77;;;4.83;;
7211;SDS011;3647;48.792;9.802;2023-06-24T03:04:56;7.27;;;5.07;;
7211;SDS011;3647;48.792;9.802;2023-06-24T03:07:27;5.97;;;4.73;;
7211;SDS011;3647;48.792;9.802;2023-06-24T03:09:55;6.93;;;5.13;;
7211;SDS011;3647;48.792;9.802;2023-06-24T03:12:24;5.93;;;4.43;;
7211;SDS011;3647;48.792;9.802;2023-06-24T03:14:51;6.43;;;4.70;;
7211;SDS011;3647;48.792;9.802;2023-06-24T03:17:18;6.30;;;4.60;;
7211;SDS011;3647;48.792;9.802;2023-06-24T03:19:45;6.77;;;4.80;;
7211;SDS011;3647;48.792;9.802;2023-06-24T03:22:12;4.80;;;4.30;;
7211;SDS011;3647;48.792;9.802;2023-06-24T03:24:39;5.13;;;4.60;;
7211;SDS011;3647;48.792;9.802;2023-06-24T03:27:06;5.40;;;4.33;;
7211;SDS011;3647;48.792;9.802;2023-06-24T03:29:34;5.30;;;3.93;;
7211;SDS011;3647;48.792;9.802;2023-06-24T03:32:01;4.87;;;4.37;;
7211;SDS011;3647;48.792;9.802;2023-06-24T03:34:28;5.67;;;4.30;;
7211;SDS011;3647;48.792;9.802;2023-06-24T03:36:55;6.07;;;4.17;;
7211;SDS011;3647;48.792;9.802;2023-06-24T03:39:22;5.17;;;4.47;;
7211;SDS011;3647;48.792;9.802;2023-06-24T03:41:49;5.77;;;4.23;;
7211;SDS011;3647;48.792;9.802;2023-06-24T03:44:15;5.37;;;4.40;;
7211;SDS011;3647;48.792;9.802;2023-06-24T03:46:44;5.93;;;4.40;;
7211;SDS011;3647;48.792;9.802;2023-06-24T03:49:11;5.53;;;4.60;;
7211;SDS011;3647;48.792;9.802;2023-06-24T03:51:37;6.23;;;4.60;;
7211;SDS011;3647;48.792;9.802;2023-06-24T03:54:04;6.63;;;4.47;;
7211;SDS011;3647;48.792;9.802;2023-06-24T03:56:31;6.47;;;4.65;;
7211;SDS011;3647;48.792;9.802;2023-06-24T03:58:58;6.53;;;4.70;;
7211;SDS011;3647;48.792;9.802;2023-06-24T04:01:25;4.93;;;4.13;;
7211;SDS011;3647;48.792;9.802;2023-06-24T04:03:58;6.67;;;4.00;;
7211;SDS011;3647;48.792;9.802;2023-06-24T04:06:25;5.60;;;4.23;;
7211;SDS011;3647;48.792;9.802;2023-06-24T04:08:51;5.30;;;4.10;;
7211;SDS011;3647;48.792;9.802;2023-06-24T04:11:18;5.43;;;4.20;;
7211;SDS011;3647;48.792;9.802;2023-06-24T04:13:45;4.70;;;3.83;;
7211;SDS011;3647;48.792;9.802;2023-06-24T04:16:15;4.07;;;3.65;;
7211;SDS011;3647;48.792;9.802;2023-06-24T04:18:41;6.60;;;4.05;;
7211;SDS011;3647;48.792;9.802;2023-06-24T04:21:10;5.22;;;3.58;;
7211;SDS011;3647;48.792;9.802;2023-06-24T04:23:37;4.70;;;3.53;;
7211;SDS011;3647;48.792;9.802;2023-06-24T04:26:04;3.85;;;3.35;;
7211;SDS011;3647;48.792;9.802;2023-06-24T04:28:31;3.95;;;3.25;;
7211;SDS011;3647;48.792;9.802;2023-06-24T04:30:58;3.65;;;3.08;;
7211;SDS011;3647;48.792;9.802;2023-06-24T04:33:24;3.60;;;3.03;;
7211;SDS011;3647;48.792;9.802;2023-06-24T04:35:51;3.92;;;2.80;;
7211;SDS011;3647;48.792;9.802;2023-06-24T04:38:20;4.57;;;3.38;;
7211;SDS011;3647;48.792;9.802;2023-06-24T04:40:48;3.83;;;3.10;;
7211;SDS011;3647;48.792;9.802;2023-06-24T04:43:15;4.20;;;3.78;;
7211;SDS011;3647;48.792;9.802;2023-06-24T04:45:42;4.15;;;3.25;;
7211;SDS011;3647;48.792;9.802;2023-06-24T04:48:09;5.28;;;3.30;;
7211;SDS011;3647;48.792;9.802;2023-06-24T04:50:35;3.72;;;3.20;;
7211;SDS011;3647;48.792;9.802;2023-06-24T04:53:03;4.57;;;3.30;;
7211;SDS011;3647;48.792;9.802;2023-06-24T04:55:32;4.82;;;3.55;;
7211;SDS011;3647;48.792;9.802;2023-06-24T04:57:58;5.43;;;3.30;;
7211;SDS011;3647;48.792;9.802;2023-06-24T05:00:25;5.18;;;3.97;;
7211;SDS011;3647;48.792;9.802;2023-06-24T05:02:52;5.35;;;3.45;;
7211;SDS011;3647;48.792;9.802;2023-06-24T05:05:19;5.13;;;3.75;;
7211;SDS011;3647;48.792;9.802;2023-06-24T05:07:46;4.68;;;3.85;;
7211;SDS011;3647;48.792;9.802;2023-06-24T05:10:13;4.72;;;3.65;;
7211;SDS011;3647;48.792;9.802;2023-06-24T05:12:41;4.47;;;4.07;;
7211;SDS011;3647;48.792;9.802;2023-06-24T05:15:09;4.78;;;3.97;;
7211;SDS011;3647;48.792;9.802;2023-06-24T05:17:36;4.07;;;3.47;;
7211;SDS011;3647;48.792;9.802;2023-06-24T05:20:03;4.57;;;3.70;;
7211;SDS011;3647;48.792;9.802;2023-06-24T05:22:31;3.58;;;3.28;;
7211;SDS011;3647;48.792;9.802;2023-06-24T05:24:58;4.28;;;3.45;;
7211;SDS011;3647;48.792;9.802;2023-06-24T05:27:25;4.40;;;3.72;;
7211;SDS011;3647;48.792;9.802;2023-06-24T05:29:53;3.83;;;3.38;;
7211;SDS011;3647;48.792;9.802;2023-06-24T05:32:20;4.60;;;3.83;;
7211;SDS011;3647;48.792;9.802;2023-06-24T05:34:47;4.20;;;3.45;;
7211;SDS011;3647;48.792;9.802;2023-06-24T05:37:14;3.65;;;3.30;;
7211;SDS011;3647;48.792;9.802;2023-06-24T05:39:40;3.97;;;3.20;;
7211;SDS011;3647;48.792;9.802;2023-06-24T05:42:07;4.45;;;3.83;;
7211;SDS011;3647;48.792;9.802;2023-06-24T05:44:34;4.65;;;3.88;;
7211;SDS011;3647;48.792;9.802;2023-06-24T05:47:03;4.15;;;3.70;;
7211;SDS011;3647;48.792;9.802;2023-06-24T05:49:30;3.80;;;3.40;;
7211;SDS011;3647;48.792;9.802;2023-06-24T05:51:57;3.63;;;3.17;;
7211;SDS011;3647;48.792;9.802;2023-06-24T05:54:24;4.43;;;3.83;;
7211;SDS011;3647;48.792;9.802;2023-06-24T05:56:51;5.43;;;3.55;;
7211;SDS011;3647;48.792;9.802;2023-06-24T05:59:18;4.22;;;3.40;;
7211;SDS011;3647;48.792;9.802;2023-06-24T06:01:45;4.88;;;3.67;;
7211;SDS011;3647;48.792;9.802;2023-06-24T06:04:13;4.60;;;3.42;;
7211;SDS011;3647;48.792;9.802;2023-06-24T06:06:40;6.07;;;3.70;;
7211;SDS011;3647;48.792;9.802;2023-06-24T06:09:07;4.22;;;3.83;;
7211;SDS011;3647;48.792;9.802;2023-06-24T06:11:34;5.57;;;3.40;;
7211;SDS011;3647;48.792;9.802;2023-06-24T06:14:01;4.75;;;2.90;;
7211;SDS011;3647;48.792;9.802;2023-06-24T06:16:28;3.90;;;3.00;;
7211;SDS011;3647;48.792;9.802;2023-06-24T06:18:54;3.60;;;2.50;;
7211;SDS011;3647;48.792;9.802;2023-06-24T06:21:23;3.63;;;3.00;;
7211;SDS011;3647;48.792;9.802;2023-06-24T06:23:50;4.75;;;2.90;;
7211;SDS011;3647;48.792;9.802;2023-06-24T06:26:17;4.38;;;2.92;;
7211;SDS011;3647;48.792;9.802;2023-06-24T06:28:44;3.53;;;2.70;;
7211;SDS011;3647;48.792;9.802;2023-06-24T06:31:12;2.45;;;2.15;;
7211;SDS011;3647;48.792;9.802;2023-06-24T06:33:39;3.65;;;2.55;;
7211;SDS011;3647;48.792;9.802;2023-06-24T06:36:06;3.53;;;2.25;;
7211;SDS011;3647;48.792;9.802;2023-06-24T06:38:34;2.88;;;2.40;;
7211;SDS011;3647;48.792;9.802;2023-06-24T06:41:00;2.85;;;2.30;;
7211;SDS011;3647;48.792;9.802;2023-06-24T06:43:27;3.17;;;2.60;;
7211;SDS011;3647;48.792;9.802;2023-06-24T06:45:54;3.72;;;2.67;;
7211;SDS011;3647;48.792;9.802;2023-06-24T06:48:21;4.90;;;2.67;;
7211;SDS011;3647;48.792;9.802;2023-06-24T06:50:48;2.28;;;2.05;;
7211;SDS011;3647;48.792;9.802;2023-06-24T06:53:14;4.18;;;2.75;;
7211;SDS011;3647;48.792;9.802;2023-06-24T06:55:43;3.03;;;2.58;;
7211;SDS011;3647;48.792;9.802;2023-06-24T06:58:09;2.72;;;2.10;;
7211;SDS011;3647;48.792;9.802;2023-06-24T07:00:36;2.90;;;2.30;;
7211;SDS011;3647;48.792;9.802;2023-06-24T07:03:03;2.95;;;2.50;;
7211;SDS011;3647;48.792;9.802;2023-06-24T07:05:30;3.15;;;2.58;;
7211;SDS011;3647;48.792;9.802;2023-06-24T07:07:56;4.57;;;2.38;;
7211;SDS011;3647;48.792;9.802;2023-06-24T07:10:23;2.58;;;2.20;;
7211;SDS011;3647;48.792;9.802;2023-06-24T07:12:51;3.47;;;1.98;;
7211;SDS011;3647;48.792;9.802;2023-06-24T07:15:23;2.40;;;2.20;;
7211;SDS011;3647;48.792;9.802;2023-06-24T07:17:50;2.88;;;2.45;;
7211;SDS011;3647;48.792;9.802;2023-06-24T07:20:17;3.15;;;2.30;;
7211;SDS011;3647;48.792;9.802;2023-06-24T07:22:44;2.47;;;2.17;;
7211;SDS011;3647;48.792;9.802;2023-06-24T07:25:11;2.40;;;2.20;;
7211;SDS011;3647;48.792;9.802;2023-06-24T07:27:38;2.88;;;2.13;;
7211;SDS011;3647;48.792;9.802;2023-06-24T07:30:07;2.92;;;2.17;;
7211;SDS011;3647;48.792;9.802;2023-06-24T07:32:34;2.70;;;2.03;;
7211;SDS011;3647;48.792;9.802;2023-06-24T07:35:01;4.55;;;2.45;;
7211;SDS011;3647;48.792;9.802;2023-06-24T07:37:28;3.17;;;2.38;;
7211;SDS011;3647;48.792;9.802;2023-06-24T07:39:55;2.10;;;1.90;;
7211;SDS011;3647;48.792;9.802;2023-06-24T07:42:22;2.92;;;2.15;;
7211;SDS011;3647;48.792;9.802;2023-06-24T07:44:48;2.20;;;2.00;;
7211;SDS011;3647;48.792;9.802;2023-06-24T07:47:17;2.83;;;2.10;;
7211;SDS011;3647;48.792;9.802;2023-06-24T07:49:44;2.33;;;2.13;;
7211;SDS011;3647;48.792;9.802;2023-06-24T07:52:11;3.22;;;2.20;;
7211;SDS011;3647;48.792;9.802;2023-06-24T07:54:38;2.15;;;1.95;;
7211;SDS011;3647;48.792;9.802;2023-06-24T07:57:05;2.78;;;2.50;;
7211;SDS011;3647;48.792;9.802;2023-06-24T07:59:31;2.85;;;2.28;;
7211;SDS011;3647;48.792;9.802;2023-06-24T08:01:58;2.30;;;2.10;;
7211;SDS011;3647;48.792;9.802;2023-06-24T08:04:26;2.22;;;2.00;;
7211;SDS011;3647;48.792;9.802;2023-06-24T08:06:53;2.40;;;2.08;;
7211;SDS011;3647;48.792;9.802;2023-06-24T08:09:20;3.33;;;1.88;;
7211;SDS011;3647;48.792;9.802;2023-06-24T08:11:46;3.10;;;2.05;;
7211;SDS011;3647;48.792;9.802;2023-06-24T08:14:13;2.72;;;2.35;;
7211;SDS011;3647;48.792;9.802;2023-06-24T08:16:40;2.50;;;2.25;;
7211;SDS011;3647;48.792;9.802;2023-06-24T08:19:07;3.00;;;2.35;;
7211;SDS011;3647;48.792;9.802;2023-06-24T08:21:35;3.08;;;2.60;;
7211;SDS011;3647;48.792;9.802;2023-06-24T08:24:03;2.38;;;2.17;;
7211;SDS011;3647;48.792;9.802;2023-06-24T08:26:30;2.70;;;2.08;;
7211;SDS011;3647;48.792;9.802;2023-06-24T08:28:56;2.70;;;2.08;;
7211;SDS011;3647;48.792;9.802;2023-06-24T08:31:24;2.28;;;2.08;;
7211;SDS011;3647;48.792;9.802;2023-06-24T08:33:51;2.75;;;2.45;;
7211;SDS011;3647;48.792;9.802;2023-06-24T08:36:18;3.30;;;2.60;;
7211;SDS011;3647;48.792;9.802;2023-06-24T08:38:48;2.38;;;2.17;;
7211;SDS011;3647;48.792;9.802;2023-06-24T08:41:15;2.15;;;1.95;;
7211;SDS011;3647;48.792;9.802;2023-06-24T08:43:42;2.28;;;1.98;;
7211;SDS011;3647;48.792;9.802;2023-06-24T08:46:09;2.58;;;2.10;;
7211;SDS011;3647;48.792;9.802;2023-06-24T08:48:36;3.17;;;2.30;;
7211;SDS011;3647;48.792;9.802;2023-06-24T08:51:07;2.30;;;2.10;;
7211;SDS011;3647;48.792;9.802;2023-06-24T08:53:34;2.30;;;1.98;;
7211;SDS011;3647;48.792;9.802;2023-06-24T08:56:05;2.40;;;1.95;;
7211;SDS011;3647;48.792;9.802;2023-06-24T08:58:32;3.30;;;2.33;;
7211;SDS011;3647;48.792;9.802;2023-06-24T09:00:59;3.03;;;1.83;;
7211;SDS011;3647;48.792;9.802;2023-06-24T09:03:27;2.40;;;1.83;;
7211;SDS011;3647;48.792;9.802;2023-06-24T09:05:54;3.08;;;2.40;;
7211;SDS011;3647;48.792;9.802;2023-06-24T09:08:21;2.38;;;1.98;;
7211;SDS011;3647;48.792;9.802;2023-06-24T09:10:52;2.65;;;2.42;;
7211;SDS011;3647;48.792;9.802;2023-06-24T09:13:21;3.03;;;2.60;;
7211;SDS011;3647;48.792;9.802;2023-06-24T09:15:59;2.22;;;1.83;;
7211;SDS011;3647;48.792;9.802;2023-06-24T09:18:32;2.28;;;2.08;;
7211;SDS011;3647;48.792;9.802;2023-06-24T09:20:59;2.35;;;2.13;;
7211;SDS011;3647;48.792;9.802;2023-06-24T09:26:50;2.25;;;2.05;;
7211;SDS011;3647;48.792;9.802;2023-06-24T09:29:26;2.83;;;1.92;;
7211;SDS011;3647;48.792;9.802;2023-06-24T09:31:53;2.83;;;2.38;;
7211;SDS011;3647;48.792;9.802;2023-06-24T09:34:21;2.95;;;2.13;;
7211;SDS011;3647;48.792;9.802;2023-06-24T09:36:50;2.50;;;2.10;;
7211;SDS011;3647;48.792;9.802;2023-06-24T09:39:19;2.40;;;2.20;;
7211;SDS011;3647;48.792;9.802;2023-06-24T09:41:48;2.88;;;2.63;;
7211;SDS011;3647;48.792;9.802;2023-06-24T09:44:16;2.30;;;2.10;;
7211;SDS011;3647;48.792;9.802;2023-06-24T09:46:46;2.50;;;2.30;;
7211;SDS011;3647;48.792;9.802;2023-06-24T09:49:13;2.28;;;2.05;;
7211;SDS011;3647;48.792;9.802;2023-06-24T09:51:42;2.45;;;2.10;;
7211;SDS011;3647;48.792;9.802;2023-06-24T09:54:11;2.97;;;2.05;;
7211;SDS011;3647;48.792;9.802;2023-06-24T09:56:39;2.28;;;2.08;;
7211;SDS011;3647;48.792;9.802;2023-06-24T09:59:09;2.88;;;2.40;;
7211;SDS011;3647;48.792;9.802;2023-06-24T10:01:38;2.80;;;2.55;;
7211;SDS011;3647;48.792;9.802;2023-06-24T10:04:08;3.45;;;2.20;;
7211;SDS011;3647;48.792;9.802;2023-06-24T10:06:36;2.78;;;2.35;;
7211;SDS011;3647;48.792;9.802;2023-06-24T10:09:04;3.17;;;2.55;;
7211;SDS011;3647;48.792;9.802;2023-06-24T10:11:31;2.20;;;1.98;;
7211;SDS011;3647;48.792;9.802;2023-06-24T10:13:58;2.45;;;1.92;;
7211;SDS011;3647;48.792;9.802;2023-06-24T10:16:25;2.13;;;1.80;;
7211;SDS011;3647;48.792;9.802;2023-06-24T10:18:52;2.58;;;2.03;;
7211;SDS011;3647;48.792;9.802;2023-06-24T10:21:27;1.85;;;1.75;;
7211;SDS011;3647;48.792;9.802;2023-06-24T10:24:11;2.35;;;2.08;;
7211;SDS011;3647;48.792;9.802;2023-06-24T10:26:39;2.63;;;2.00;;
7211;SDS011;3647;48.792;9.802;2023-06-24T10:29:12;3.50;;;2.63;;
7211;SDS011;3647;48.792;9.802;2023-06-24T10:34:30;3.03;;;2.30;;
7211;SDS011;3647;48.792;9.802;2023-06-24T10:37:08;2.50;;;2.05;;
7211;SDS011;3647;48.792;9.802;2023-06-24T10:39:45;2.40;;;2.05;;
7211;SDS011;3647;48.792;9.802;2023-06-24T10:42:30;3.22;;;2.05;;
7211;SDS011;3647;48.792;9.802;2023-06-24T10:44:59;2.63;;;2.35;;
7211;SDS011;3647;48.792;9.802;2023-06-24T10:47:27;2.45;;;2.03;;
7211;SDS011;3647;48.792;9.802;2023-06-24T10:49:55;2.40;;;2.20;;
7211;SDS011;3647;48.792;9.802;2023-06-24T10:52:24;6.45;;;2.65;;
7211;SDS011;3647;48.792;9.802;2023-06-24T10:54:51;2.20;;;2.00;;
7211;SDS011;3647;48.792;9.802;2023-06-24T10:57:22;2.25;;;2.00;;
7211;SDS011;3647;48.792;9.802;2023-06-24T10:59:51;2.10;;;1.70;;
7211;SDS011;3647;48.792;9.802;2023-06-24T11:02:19;3.70;;;1.83;;
7211;SDS011;3647;48.792;9.802;2023-06-24T11:04:47;2.63;;;2.00;;
7211;SDS011;3647;48.792;9.802;2023-06-24T11:07:15;2.17;;;1.83;;
7211;SDS011;3647;48.792;9.802;2023-06-24T11:09:49;3.30;;;1.70;;
7211;SDS011;3647;48.792;9.802;2023-06-24T11:12:16;2.15;;;1.90;;
7211;SDS011;3647;48.792;9.802;2023-06-24T11:14:43;2.10;;;1.90;;
7211;SDS011;3647;48.792;9.802;2023-06-24T11:17:10;2.30;;;2.10;;
7211;SDS011;3647;48.792;9.802;2023-06-24T11:19:38;2.90;;;1.92;;
7211;SDS011;3647;48.792;9.802;2023-06-24T11:22:06;2.10;;;1.80;;
7211;SDS011;3647;48.792;9.802;2023-06-24T11:24:33;2.30;;;1.92;;
7211;SDS011;3647;48.792;9.802;2023-06-24T11:27:03;2.22;;;1.90;;
7211;SDS011;3647;48.792;9.802;2023-06-24T11:29:31;1.63;;;1.52;;
7211;SDS011;3647;48.792;9.802;2023-06-24T11:32:00;2.05;;;1.85;;
7211;SDS011;3647;48.792;9.802;2023-06-24T11:34:28;2.78;;;2.20;;
7211;SDS011;3647;48.792;9.802;2023-06-24T11:36:55;2.17;;;1.83;;
7211;SDS011;3647;48.792;9.802;2023-06-24T11:39:22;2.22;;;1.88;;
7211;SDS011;3647;48.792;9.802;2023-06-24T11:41:50;2.35;;;1.92;;
7211;SDS011;3647;48.792;9.802;2023-06-24T11:44:20;2.75;;;2.03;;
7211;SDS011;3647;48.792;9.802;2023-06-24T11:46:47;2.70;;;2.15;;
7211;SDS011;3647;48.792;9.802;2023-06-24T11:49:14;2.95;;;2.00;;
7211;SDS011;3647;48.792;9.802;2023-06-24T11:51:45;2.38;;;2.10;;
7211;SDS011;3647;48.792;9.802;2023-06-24T11:54:14;2.20;;;2.00;;
7211;SDS011;3647;48.792;9.802;2023-06-24T11:56:43;2.53;;;1.92;;
7211;SDS011;3647;48.792;9.802;2023-06-24T11:59:15;2.08;;;1.88;;
7211;SDS011;3647;48.792;9.802;2023-06-24T12:01:45;3.20;;;1.95;;
7211;SDS011;3647;48.792;9.802;2023-06-24T12:04:17;2.00;;;1.80;;
7211;SDS011;3647;48.792;9.802;2023-06-24T12:06:44;2.90;;;2.05;;
7211;SDS011;3647;48.792;9.802;2023-06-24T12:09:11;2.13;;;1.73;;
7211;SDS011;3647;48.792;9.802;2023-06-24T12:11:38;1.85;;;1.63;;
7211;SDS011;3647;48.792;9.802;2023-06-24T12:14:05;2.15;;;1.95;;
7211;SDS011;3647;48.792;9.802;2023-06-24T12:16:32;2.30;;;2.10;;
7211;SDS011;3647;48.792;9.802;2023-06-24T12:19:01;2.20;;;1.92;;
7211;SDS011;3647;48.792;9.802;2023-06-24T12:21:28;2.55;;;2.30;;
7211;SDS011;3647;48.792;9.802;2023-06-24T12:23:55;2.13;;;1.70;;
7211;SDS011;3647;48.792;9.802;2023-06-24T12:26:22;1.80;;;1.70;;
7211;SDS011;3647;48.792;9.802;2023-06-24T12:28:49;3.08;;;1.98;;
7211;SDS011;3647;48.792;9.802;2023-06-24T12:31:16;2.35;;;1.90;;
7211;SDS011;3647;48.792;9.802;2023-06-24T12:33:43;2.15;;;1.77;;
7211;SDS011;3647;48.792;9.802;2023-06-24T12:36:11;2.03;;;1.83;;
7211;SDS011;3647;48.792;9.802;2023-06-24T12:38:38;2.80;;;2.17;;
7211;SDS011;3647;48.792;9.802;2023-06-24T12:41:05;2.63;;;1.85;;
7211;SDS011;3647;48.792;9.802;2023-06-24T12:43:32;2.58;;;2.17;;
7211;SDS011;3647;48.792;9.802;2023-06-24T12:45:59;1.90;;;1.80;;
7211;SDS011;3647;48.792;9.802;2023-06-24T12:48:26;2.08;;;1.83;;
7211;SDS011;3647;48.792;9.802;2023-06-24T12:50:53;2.47;;;2.03;;
7211;SDS011;3647;48.792;9.802;2023-06-24T12:53:21;3.53;;;2.13;;
7211;SDS011;3647;48.792;9.802;2023-06-24T12:55:48;3.38;;;1.92;;
7211;SDS011;3647;48.792;9.802;2023-06-24T12:58:18;2.88;;;2.10;;
7211;SDS011;3647;48.792;9.802;2023-06-24T13:00:45;2.10;;;1.65;;
7211;SDS011;3647;48.792;9.802;2023-06-24T13:03:12;2.15;;;1.77;;
7211;SDS011;3647;48.792;9.802;2023-06-24T13:05:39;3.55;;;1.80;;
7211;SDS011;3647;48.792;9.802;2023-06-24T13:08:06;2.65;;;2.00;;
7211;SDS011;3647;48.792;9.802;2023-06-24T13:10:34;4.78;;;2.90;;
7211;SDS011;3647;48.792;9.802;2023-06-24T13:13:01;2.20;;;2.00;;
7211;SDS011;3647;48.792;9.802;2023-06-24T13:15:27;2.10;;;1.85;;
7211;SDS011;3647;48.792;9.802;2023-06-24T13:17:54;2.25;;;1.85;;
7211;SDS011;3647;48.792;9.802;2023-06-24T13:20:21;2.42;;;2.22;;
7211;SDS011;3647;48.792;9.802;2023-06-24T13:22:48;3.33;;;2.10;;
7211;SDS011;3647;48.792;9.802;2023-06-24T13:25:15;2.50;;;1.90;;
7211;SDS011;3647;48.792;9.802;2023-06-24T13:27:43;2.80;;;1.98;;
7211;SDS011;3647;48.792;9.802;2023-06-24T13:30:11;2.15;;;1.95;;
7211;SDS011;3647;48.792;9.802;2023-06-24T13:32:40;2.42;;;1.92;;
7211;SDS011;3647;48.792;9.802;2023-06-24T13:35:07;3.35;;;2.05;;
7211;SDS011;3647;48.792;9.802;2023-06-24T13:37:34;3.80;;;1.92;;
7211;SDS011;3647;48.792;9.802;2023-06-24T13:40:01;2.05;;;1.65;;
7211;SDS011;3647;48.792;9.802;2023-06-24T13:42:29;2.08;;;1.88;;
7211;SDS011;3647;48.792;9.802;2023-06-24T13:44:57;2.25;;;1.88;;
7211;SDS011;3647;48.792;9.802;2023-06-24T13:47:24;2.30;;;2.00;;
7211;SDS011;3647;48.792;9.802;2023-06-24T13:49:51;2.63;;;2.08;;
7211;SDS011;3647;48.792;9.802;2023-06-24T13:52:18;2.20;;;2.00;;
7211;SDS011;3647;48.792;9.802;2023-06-24T13:54:46;2.00;;;1.80;;
7211;SDS011;3647;48.792;9.802;2023-06-24T13:57:13;2.40;;;2.05;;
7211;SDS011;3647;48.792;9.802;2023-06-24T13:59:40;1.88;;;1.65;;
7211;SDS011;3647;48.792;9.802;2023-06-24T14:02:09;2.35;;;1.80;;
7211;SDS011;3647;48.792;9.802;2023-06-24T14:04:36;2.20;;;2.00;;
7211;SDS011;3647;48.792;9.802;2023-06-24T14:07:04;2.10;;;1.90;;
7211;SDS011;3647;48.792;9.802;2023-06-24T14:09:31;2.60;;;2.05;;
7211;SDS011;3647;48.792;9.802;2023-06-24T14:11:58;2.03;;;1.83;;
7211;SDS011;3647;48.792;9.802;2023-06-24T14:14:25;2.30;;;2.03;;
7211;SDS011;3647;48.792;9.802;2023-06-24T14:16:52;3.85;;;2.33;;
7211;SDS011;3647;48.792;9.802;2023-06-24T14:19:20;2.03;;;1.60;;
7211;SDS011;3647;48.792;9.802;2023-06-24T14:21:47;2.40;;;2.20;;
7211;SDS011;3647;48.792;9.802;2023-06-24T14:24:13;1.98;;;1.83;;
7211;SDS011;3647;48.792;9.802;2023-06-24T14:26:40;2.00;;;1.80;;
7211;SDS011;3647;48.792;9.802;2023-06-24T14:29:07;2.42;;;2.22;;
7211;SDS011;3647;48.792;9.802;2023-06-24T14:31:34;2.17;;;1.73;;
7211;SDS011;3647;48.792;9.802;2023-06-24T14:34:01;3.60;;;1.90;;
7211;SDS011;3647;48.792;9.802;2023-06-24T14:36:29;3.45;;;1.85;;
7211;SDS011;3647;48.792;9.802;2023-06-24T14:38:56;1.80;;;1.70;;
7211;SDS011;3647;48.792;9.802;2023-06-24T14:41:23;2.33;;;1.92;;
7211;SDS011;3647;48.792;9.802;2023-06-24T14:43:50;1.92;;;1.70;;
7211;SDS011;3647;48.792;9.802;2023-06-24T14:46:17;2.63;;;2.20;;
7211;SDS011;3647;48.792;9.802;2023-06-24T14:48:44;2.15;;;1.90;;
7211;SDS011;3647;48.792;9.802;2023-06-24T14:51:10;1.70;;;1.58;;
7211;SDS011;3647;48.792;9.802;2023-06-24T14:53:39;2.05;;;1.83;;
7211;SDS011;3647;48.792;9.802;2023-06-24T14:56:06;2.95;;;1.73;;
7211;SDS011;3647;48.792;9.802;2023-06-24T14:58:33;2.80;;;2.00;;
7211;SDS011;3647;48.792;9.802;2023-06-24T15:01:00;1.77;;;1.65;;
7211;SDS011;3647;48.792;9.802;2023-06-24T15:03:27;2.60;;;2.30;;
7211;SDS011;3647;48.792;9.802;2023-06-24T15:05:54;2.30;;;2.00;;
7211;SDS011;3647;48.792;9.802;2023-06-24T15:08:20;3.88;;;2.00;;
7211;SDS011;3647;48.792;9.802;2023-06-24T15:10:51;2.30;;;1.98;;
7211;SDS011;3647;48.792;9.802;2023-06-24T15:13:18;1.42;;;1.33;;
7211;SDS011;3647;48.792;9.802;2023-06-24T15:15:45;2.38;;;1.70;;
7211;SDS011;3647;48.792;9.802;2023-06-24T15:18:12;3.03;;;2.10;;
7211;SDS011;3647;48.792;9.802;2023-06-24T15:20:39;2.58;;;2.20;;
7211;SDS011;3647;48.792;9.802;2023-06-24T15:23:06;2.25;;;2.05;;
7211;SDS011;3647;48.792;9.802;2023-06-24T15:25:33;2.53;;;1.90;;
7211;SDS011;3647;48.792;9.802;2023-06-24T15:28:01;3.33;;;2.50;;
7211;SDS011;3647;48.792;9.802;2023-06-24T15:30:28;3.35;;;2.20;;